Time;durP1;ratioP1;P1;durP2;ratioP2;P2;SDS_P1;SDS_P2;PMS_P1;PMS_P2;Temp;Humidity;BMP_temperature;BMP_pressure;BME280_temperature;BME280_humidity;BME280_pressure;Samples;Min_cycle;Max_cycle;Signal;HPM_P1;HPM_P2
2024/02/06 00:02:23;;;;;;;8.23;3.65;;;;;;;-1.61;74.06;96368.66;5114979;28;20035;-62
2024/02/06 00:04:49;;;;;;;10.20;4.15;;;;;;;-1.66;74.36;96367.78;5113460;28;20097;-62
2024/02/06 00:07:14;;;;;;;8.82;4.85;;;;;;;-1.65;74.63;96377.97;5113423;28;20077;-62
2024/02/06 00:09:40;;;;;;;10.82;4.78;;;;;;;-1.66;74.46;96370.38;5114853;28;20067;-63
2024/02/06 00:12:09;;;;;;;8.60;4.10;;;;;;;-1.70;74.57;96375.25;5114250;27;20708;-62
2024/02/06 00:14:35;;;;;;;8.43;4.95;;;;;;;-1.66;74.76;96376.34;5113387;28;20051;-61
2024/02/06 00:17:01;;;;;;;8.73;4.43;;;;;;;-1.68;74.54;96377.59;5114664;28;20043;-62
2024/02/06 00:19:27;;;;;;;9.60;5.47;;;;;;;-1.51;74.24;96393.25;5114658;28;20154;-63
2024/02/06 00:21:53;;;;;;;15.13;4.65;;;;;;;-1.60;74.14;96382.44;5113360;28;20551;-61
2024/02/06 00:24:18;;;;;;;4.90;3.30;;;;;;;-1.58;73.62;96390.00;5113544;28;20085;-64
2024/02/06 00:26:44;;;;;;;8.32;3.95;;;;;;;-1.70;74.40;96396.03;5114695;28;20042;-62
2024/02/06 00:29:10;;;;;;;9.30;4.20;;;;;;;-1.64;74.57;96392.50;5114125;28;20405;-61
2024/02/06 00:31:36;;;;;;;7.53;3.65;;;;;;;-1.54;74.27;96393.69;5114212;28;20035;-63
2024/02/06 00:34:02;;;;;;;7.10;3.90;;;;;;;-1.63;74.16;96398.47;5114151;28;20165;-64
2024/02/06 00:36:28;;;;;;;10.73;4.70;;;;;;;-1.56;74.42;96393.13;5110935;28;20097;-62
2024/02/06 00:38:54;;;;;;;9.00;4.65;;;;;;;-1.61;74.35;96399.06;5114255;28;20071;-63
2024/02/06 00:41:20;;;;;;;11.80;5.97;;;;;;;-1.57;74.23;96402.75;5096006;28;20040;-62
2024/02/06 00:43:45;;;;;;;15.45;6.80;;;;;;;-1.49;74.23;96406.78;5114234;28;20035;-61
2024/02/06 00:46:11;;;;;;;14.98;6.90;;;;;;;-1.48;73.94;96403.94;5113126;28;20572;-62
2024/02/06 00:48:37;;;;;;;12.60;5.43;;;;;;;-1.46;73.71;96414.13;5113641;28;20090;-62
2024/02/06 00:51:03;;;;;;;16.75;7.22;;;;;;;-1.28;73.44;96413.13;5114109;28;20036;-61
2024/02/06 00:53:28;;;;;;;15.65;6.78;;;;;;;-1.41;73.67;96414.22;5095686;28;20040;-62
2024/02/06 00:55:54;;;;;;;22.85;10.20;;;;;;;-1.50;73.65;96413.81;5113983;28;20449;-62
2024/02/06 00:58:20;;;;;;;22.77;10.82;;;;;;;-1.47;73.69;96418.53;5113585;27;20043;-60
2024/02/06 01:00:45;;;;;;;11.20;5.95;;;;;;;-1.45;73.54;96423.47;5113698;28;20031;-62
2024/02/06 01:03:11;;;;;;;6.78;3.97;;;;;;;-1.49;73.91;96419.78;5112465;28;20156;-61
2024/02/06 01:05:37;;;;;;;7.38;4.57;;;;;;;-1.54;73.37;96423.06;5112593;28;20036;-62
2024/02/06 01:08:02;;;;;;;8.45;4.40;;;;;;;-1.55;73.59;96423.31;5113881;28;20039;-62
2024/02/06 01:10:28;;;;;;;10.23;5.97;;;;;;;-1.53;73.44;96429.03;5113446;28;20127;-62
2024/02/06 01:12:54;;;;;;;8.32;4.80;;;;;;;-1.62;73.88;96428.63;5112195;28;20401;-62
2024/02/06 01:15:19;;;;;;;6.30;3.97;;;;;;;-1.61;73.63;96427.63;5113877;28;20046;-64
2024/02/06 01:17:45;;;;;;;9.27;4.35;;;;;;;-1.59;73.81;96425.56;5113757;28;20069;-62
2024/02/06 01:20:11;;;;;;;9.13;3.85;;;;;;;-1.60;73.61;96429.19;5113114;28;20101;-63
2024/02/06 01:22:37;;;;;;;7.22;4.13;;;;;;;-1.63;73.58;96435.63;5113433;28;20044;-62
2024/02/06 01:25:04;;;;;;;10.05;4.60;;;;;;;-1.76;73.90;96419.56;5113181;28;20075;-64
2024/02/06 01:27:30;;;;;;;8.85;4.63;;;;;;;-1.74;74.20;96435.66;5113377;27;20036;-59
2024/02/06 01:29:55;;;;;;;9.02;3.78;;;;;;;-1.70;74.12;96442.78;5112894;28;20055;-64
2024/02/06 01:32:21;;;;;;;9.00;4.10;;;;;;;-1.69;74.13;96439.16;5112813;28;20082;-63
2024/02/06 01:34:47;;;;;;;7.50;4.03;;;;;;;-1.72;73.86;96446.63;5112884;28;20075;-61
2024/02/06 01:37:12;;;;;;;5.85;3.90;;;;;;;-1.67;73.88;96447.50;5113136;28;20043;-62
2024/02/06 01:39:38;;;;;;;6.47;3.88;;;;;;;-1.74;73.93;96448.66;5113077;28;20059;-64
2024/02/06 01:42:04;;;;;;;9.43;4.25;;;;;;;-1.74;74.05;96448.66;5113150;28;20120;-63
2024/02/06 01:44:30;;;;;;;10.55;4.95;;;;;;;-1.78;73.80;96447.56;5112847;28;20036;-61
2024/02/06 01:46:57;;;;;;;10.38;4.60;;;;;;;-1.80;74.11;96447.78;5111342;28;20039;-61
2024/02/06 01:49:22;;;;;;;8.23;4.55;;;;;;;-1.83;74.31;96462.00;5112636;28;20039;-62
2024/02/06 01:51:49;;;;;;;12.20;4.65;;;;;;;-1.79;74.58;96459.75;5112962;28;20046;-61
2024/02/06 01:54:15;;;;;;;8.73;4.38;;;;;;;-1.73;74.33;96458.03;5094132;28;20035;-62
2024/02/06 01:56:42;;;;;;;5.40;3.95;;;;;;;-1.79;74.16;96457.16;5112669;28;20067;-62
2024/02/06 01:59:07;;;;;;;8.13;2.72;;;;;;;-1.85;74.45;96464.06;5112656;28;20504;-63
2024/02/06 02:01:33;;;;;;;6.47;3.22;;;;;;;-1.86;74.11;96459.84;5112207;28;20146;-63
2024/02/06 02:03:59;;;;;;;6.20;3.25;;;;;;;-1.84;74.05;96457.84;5112568;28;20039;-62
2024/02/06 02:06:26;;;;;;;6.72;3.92;;;;;;;-1.73;74.09;96461.44;5111287;28;20401;-61
2024/02/06 02:08:52;;;;;;;6.15;3.42;;;;;;;-1.63;73.95;96474.59;5111430;28;20047;-62
2024/02/06 02:11:18;;;;;;;8.65;3.13;;;;;;;-1.55;73.81;96472.66;5111204;28;20032;-62
2024/02/06 02:13:45;;;;;;;10.82;3.70;;;;;;;-1.49;73.28;96474.34;5112273;28;20519;-62
2024/02/06 02:16:11;;;;;;;5.93;3.03;;;;;;;-1.48;73.15;96468.91;5111258;28;20459;-61
2024/02/06 02:18:37;;;;;;;7.78;3.83;;;;;;;-1.42;73.50;96469.78;5110802;28;20059;-62
2024/02/06 02:21:10;;;;;;;5.13;3.30;;;;;;;-1.34;73.07;96476.44;5110870;28;20126;-62
2024/02/06 02:23:38;;;;;;;5.90;2.80;;;;;;;-1.29;72.59;96476.53;5112338;28;20076;-61
2024/02/06 02:26:05;;;;;;;6.53;3.28;;;;;;;-1.30;72.52;96483.50;5110942;28;20046;-62
2024/02/06 02:28:31;;;;;;;5.35;3.00;;;;;;;-1.23;72.49;96484.16;5110603;28;20059;-62
2024/02/06 02:30:57;;;;;;;4.05;2.78;;;;;;;-1.25;71.95;96481.00;5093775;28;20043;-61
2024/02/06 02:33:23;;;;;;;4.38;2.58;;;;;;;-1.20;72.29;96486.31;5110590;28;20051;-61
2024/02/06 02:35:50;;;;;;;7.00;2.95;;;;;;;-1.26;71.88;96486.44;5112176;28;20113;-62
2024/02/06 02:38:19;;;;;;;4.07;3.25;;;;;;;-1.29;72.06;96494.72;5111837;28;20093;-61
2024/02/06 02:40:45;;;;;;;8.05;3.58;;;;;;;-1.23;72.25;96499.75;5112110;28;20046;-61
2024/02/06 02:43:11;;;;;;;8.13;3.97;;;;;;;-1.21;71.91;96499.53;5111542;28;20043;-62
2024/02/06 02:45:37;;;;;;;6.82;3.78;;;;;;;-1.14;72.08;96497.59;5112083;28;20035;-63
2024/02/06 02:48:03;;;;;;;6.68;3.08;;;;;;;-1.07;71.97;96494.81;5110836;28;20047;-62
2024/02/06 02:50:29;;;;;;;5.78;2.78;;;;;;;-1.09;71.33;96497.66;5110462;28;20047;-63
2024/02/06 02:52:54;;;;;;;4.20;3.10;;;;;;;-1.09;71.88;96502.06;5111555;28;20050;-62
2024/02/06 02:55:20;;;;;;;6.55;2.85;;;;;;;-1.09;71.86;96499.47;5111670;28;20044;-63
2024/02/06 02:57:46;;;;;;;4.93;2.72;;;;;;;-1.05;71.70;96498.78;5112005;28;20035;-61
2024/02/06 03:00:13;;;;;;;5.13;3.25;;;;;;;-0.99;71.57;96499.66;5113118;28;20050;-63
2024/02/06 03:02:39;;;;;;;7.85;3.22;;;;;;;-0.97;71.22;96502.78;5116179;28;20043;-62
2024/02/06 03:05:05;;;;;;;5.63;3.20;;;;;;;-0.94;71.51;96499.75;5115880;27;20469;-63
2024/02/06 03:07:30;;;;;;;7.90;2.95;;;;;;;-0.87;71.22;96502.97;5115690;28;20070;-62
2024/02/06 03:09:56;;;;;;;4.45;2.80;;;;;;;-0.87;71.37;96505.56;5115820;28;20078;-63
2024/02/06 03:12:22;;;;;;;7.78;3.00;;;;;;;-0.85;71.08;96511.34;5115924;28;20040;-61
2024/02/06 03:14:47;;;;;;;4.25;2.97;;;;;;;-0.79;70.91;96509.63;5116003;28;20043;-63
2024/02/06 03:17:13;;;;;;;4.00;2.53;;;;;;;-0.84;71.04;96507.72;5115748;28;20085;-62
2024/02/06 03:19:40;;;;;;;6.00;3.25;;;;;;;-0.85;71.02;96498.34;5115822;28;20047;-63
2024/02/06 03:22:06;;;;;;;5.82;3.35;;;;;;;-0.79;70.81;96489.59;5115653;28;20470;-63
2024/02/06 03:24:31;;;;;;;6.03;3.10;;;;;;;-0.79;70.52;96489.59;5115580;28;20047;-62
2024/02/06 03:26:57;;;;;;;5.20;2.80;;;;;;;-0.75;70.78;96506.28;5115642;28;20092;-62
2024/02/06 03:29:23;;;;;;;6.97;3.47;;;;;;;-0.73;71.01;96498.28;5115180;28;20059;-62
2024/02/06 03:31:48;;;;;;;10.07;5.10;;;;;;;-0.77;70.54;96497.94;5097269;28;20081;-63
2024/02/06 03:34:14;;;;;;;7.03;3.90;;;;;;;-0.83;71.13;96498.88;5115448;28;20054;-64
2024/02/06 03:36:42;;;;;;;5.30;3.33;;;;;;;-0.92;71.46;96503.66;5115383;28;20036;-62
2024/02/06 03:39:09;;;;;;;9.63;3.97;;;;;;;-0.98;71.62;96496.81;5115310;28;20040;-64
2024/02/06 03:41:35;;;;;;;5.70;3.70;;;;;;;-0.96;71.59;96507.00;5113641;28;20048;-63
2024/02/06 03:44:01;;;;;;;11.85;4.30;;;;;;;-0.95;71.67;96517.13;5114006;28;20536;-62
2024/02/06 03:46:27;;;;;;;9.55;4.25;;;;;;;-0.87;71.50;96513.38;5113806;28;20044;-64
2024/02/06 03:48:52;;;;;;;10.65;4.00;;;;;;;-0.84;71.24;96506.94;5113974;28;20408;-64
2024/02/06 03:51:18;;;;;;;9.05;4.85;;;;;;;-0.78;71.16;96514.56;5115211;28;20477;-63
2024/02/06 03:53:43;;;;;;;12.13;5.30;;;;;;;-0.80;71.33;96508.81;5113406;28;20047;-62
2024/02/06 03:56:09;;;;;;;8.10;4.63;;;;;;;-0.70;71.01;96518.59;5113676;28;20039;-63
2024/02/06 03:58:35;;;;;;;7.88;4.38;;;;;;;-0.82;71.21;96513.47;5096553;28;20070;-61
2024/02/06 04:01:00;;;;;;;7.82;3.78;;;;;;;-0.72;71.11;96521.44;5114743;28;20047;-62
2024/02/06 04:03:26;;;;;;;8.32;3.60;;;;;;;-0.75;70.92;96524.50;5114370;28;20043;-63
2024/02/06 04:05:52;;;;;;;7.70;3.55;;;;;;;-0.85;71.69;96521.75;5113630;28;20049;-63
2024/02/06 04:08:18;;;;;;;6.88;3.55;;;;;;;-0.86;71.62;96524.56;5113437;28;20058;-63
2024/02/06 04:10:44;;;;;;;8.20;3.92;;;;;;;-0.74;71.53;96527.88;5113258;28;20040;-62
2024/02/06 04:13:09;;;;;;;7.45;3.80;;;;;;;-0.69;71.50;96533.19;5114407;27;20549;-63
2024/02/06 04:15:35;;;;;;;4.65;2.70;;;;;;;-0.66;70.97;96530.09;5113230;28;20077;-63
2024/02/06 04:18:04;;;;;;;4.70;2.80;;;;;;;-0.70;71.06;96534.22;5114893;28;20043;-62
2024/02/06 04:20:31;;;;;;;5.18;3.42;;;;;;;-0.71;71.33;96530.84;5112942;28;20075;-63
2024/02/06 04:23:00;;;;;;;6.85;3.45;;;;;;;-0.68;71.13;96537.34;5113175;28;20108;-62
2024/02/06 04:25:27;;;;;;;5.93;3.25;;;;;;;-0.85;71.72;96529.53;5114062;28;20131;-69
2024/02/06 04:27:53;;;;;;;6.97;3.22;;;;;;;-0.82;71.73;96536.09;5095832;28;21480;-62
2024/02/06 04:30:19;;;;;;;5.88;2.90;;;;;;;-0.81;71.62;96530.66;5112723;28;20044;-61
2024/02/06 04:32:45;;;;;;;5.35;3.08;;;;;;;-0.76;71.91;96538.53;5112811;28;20047;-61
2024/02/06 04:35:13;;;;;;;4.40;2.90;;;;;;;-0.78;71.48;96535.38;5113211;28;20091;-64
2024/02/06 04:37:38;;;;;;;4.88;3.17;;;;;;;-0.81;71.61;96533.25;5114413;28;20556;-62
2024/02/06 04:40:06;;;;;;;8.93;3.05;;;;;;;-0.84;71.54;96525.13;5114617;27;20040;-65
2024/02/06 04:42:32;;;;;;;6.10;2.80;;;;;;;-0.72;71.36;96541.47;5112843;28;20040;-63
2024/02/06 04:44:58;;;;;;;6.13;2.92;;;;;;;-0.71;71.05;96540.44;5114274;28;20417;-61
2024/02/06 04:47:23;;;;;;;4.00;2.78;;;;;;;-0.55;70.70;96547.47;5112858;28;20039;-61
2024/02/06 04:49:49;;;;;;;6.00;3.00;;;;;;;-0.52;70.46;96543.59;5113924;28;20040;-66
2024/02/06 04:52:15;;;;;;;6.03;3.03;;;;;;;-0.51;70.54;96550.38;5113998;28;20519;-63
2024/02/06 04:54:40;;;;;;;6.43;2.67;;;;;;;-0.51;70.76;96543.34;5112725;28;20035;-62
2024/02/06 04:57:06;;;;;;;5.05;2.67;;;;;;;-0.53;70.41;96544.63;5113909;28;20055;-61
2024/02/06 04:59:33;;;;;;;6.10;2.80;;;;;;;-0.62;70.59;96552.03;5111890;28;20129;-61
2024/02/06 05:01:58;;;;;;;7.45;3.22;;;;;;;-0.64;70.78;96548.09;5113426;28;20028;-61
2024/02/06 05:04:24;;;;;;;9.68;2.75;;;;;;;-0.62;70.84;96551.22;5113748;28;20043;-62
2024/02/06 05:06:50;;;;;;;3.58;2.60;;;;;;;-0.62;71.53;96543.44;5111810;28;20027;-60
2024/02/06 05:09:16;;;;;;;3.03;2.40;;;;;;;-0.61;71.66;96550.22;5113463;28;20406;-63
2024/02/06 05:11:41;;;;;;;3.72;2.58;;;;;;;-0.54;71.51;96549.03;5111793;28;20089;-63
2024/02/06 05:14:08;;;;;;;4.78;2.70;;;;;;;-0.55;71.06;96552.66;5113253;28;20035;-62
2024/02/06 05:16:34;;;;;;;3.97;2.90;;;;;;;-0.61;71.79;96550.22;5113560;28;20044;-62
2024/02/06 05:18:59;;;;;;;6.43;2.90;;;;;;;-0.66;71.70;96547.53;5113290;28;20455;-64
2024/02/06 05:21:25;;;;;;;8.30;3.13;;;;;;;-0.75;72.50;96540.09;5112882;28;20077;-61
2024/02/06 05:23:51;;;;;;;6.60;3.00;;;;;;;-0.71;72.46;96546.44;5111613;28;20044;-65
2024/02/06 05:26:17;;;;;;;5.13;2.65;;;;;;;-0.69;72.63;96554.00;5113140;28;20043;-61
2024/02/06 05:28:44;;;;;;;5.95;2.78;;;;;;;-0.72;72.93;96557.84;5111684;28;20527;-60
2024/02/06 05:31:09;;;;;;;5.50;2.85;;;;;;;-0.69;72.86;96557.38;5111757;28;20574;-60
2024/02/06 05:33:35;;;;;;;7.03;3.13;;;;;;;-0.69;73.12;96554.78;5113411;28;20174;-61
2024/02/06 05:36:01;;;;;;;4.57;3.25;;;;;;;-0.70;72.90;96553.22;5113818;28;20066;-62
2024/02/06 05:38:27;;;;;;;5.05;2.72;;;;;;;-0.66;73.15;96545.72;5113025;28;20129;-61
2024/02/06 05:40:53;;;;;;;7.20;2.53;;;;;;;-0.65;72.79;96552.50;5111752;28;20050;-60
2024/02/06 05:43:19;;;;;;;6.72;2.95;;;;;;;-0.63;72.84;96550.44;5112069;28;20051;-59
2024/02/06 05:45:45;;;;;;;4.70;3.05;;;;;;;-0.57;72.85;96546.91;5095136;28;20044;-59
2024/02/06 05:48:11;;;;;;;5.93;3.38;;;;;;;-0.51;72.52;96547.78;5112985;28;20624;-59
2024/02/06 05:50:36;;;;;;;5.53;3.20;;;;;;;-0.53;72.44;96552.41;5111425;28;20042;-59
2024/02/06 05:53:02;;;;;;;7.63;3.30;;;;;;;-0.60;71.49;96549.19;5111266;28;20036;-60
2024/02/06 05:55:28;;;;;;;6.13;3.45;;;;;;;-0.71;72.52;96549.03;5110774;28;20561;-59
2024/02/06 05:57:54;;;;;;;5.43;3.70;;;;;;;-0.67;73.52;96548.56;5111046;28;20471;-60
2024/02/06 06:00:20;;;;;;;6.30;4.28;;;;;;;-0.59;73.36;96546.38;5109729;28;20039;-61
2024/02/06 06:02:46;;;;;;;9.00;4.65;;;;;;;-0.50;73.54;96550.16;5112526;28;20039;-61
2024/02/06 06:05:12;;;;;;;5.85;3.65;;;;;;;-0.45;73.36;96552.03;5111390;28;20500;-62
2024/02/06 06:07:37;;;;;;;7.93;4.15;;;;;;;-0.38;72.97;96552.69;5110820;28;20489;-61
2024/02/06 06:10:03;;;;;;;9.75;4.20;;;;;;;-0.35;72.87;96552.22;5110823;28;20081;-60
2024/02/06 06:12:29;;;;;;;7.30;3.53;;;;;;;-0.30;72.44;96547.06;5111760;28;20582;-61
2024/02/06 06:14:55;;;;;;;6.75;3.60;;;;;;;-0.23;72.35;96549.53;5111963;28;20115;-61
2024/02/06 06:17:21;;;;;;;5.93;3.80;;;;;;;-0.18;71.60;96541.78;5110625;28;20376;-60
2024/02/06 06:19:47;;;;;;;11.80;4.20;;;;;;;-0.01;71.70;96549.56;5112100;28;20043;-63
2024/02/06 06:22:12;;;;;;;8.30;3.70;;;;;;;0.10;71.82;96550.50;5110894;28;20039;-61
2024/02/06 06:24:38;;;;;;;6.28;3.72;;;;;;;0.22;71.15;96548.59;5109761;28;20058;-62
2024/02/06 06:27:05;;;;;;;7.82;3.38;;;;;;;0.18;69.63;96556.09;5111659;28;20036;-61
2024/02/06 06:29:31;;;;;;;9.27;4.03;;;;;;;0.18;71.55;96548.28;5111464;28;20052;-60
2024/02/06 06:31:57;;;;;;;5.60;3.70;;;;;;;0.16;71.04;96549.56;5110647;28;20127;-62
2024/02/06 06:34:23;;;;;;;8.45;3.47;;;;;;;-0.03;71.76;96559.44;5109623;28;20134;-62
2024/02/06 06:36:49;;;;;;;8.27;3.92;;;;;;;0.05;72.23;96553.03;5111954;28;20035;-63
2024/02/06 06:39:17;;;;;;;4.95;2.90;;;;;;;0.22;72.20;96549.38;5110129;28;20499;-62
2024/02/06 06:41:45;;;;;;;7.53;3.38;;;;;;;0.32;71.49;96558.34;5060769;28;20501;-60
2024/02/06 06:44:11;;;;;;;5.90;3.35;;;;;;;0.42;71.61;96564.50;5110086;28;20142;-60
2024/02/06 06:46:37;;;;;;;5.75;3.10;;;;;;;0.42;71.46;96563.72;5110745;28;20481;-60
2024/02/06 06:49:03;;;;;;;7.15;3.10;;;;;;;0.48;71.52;96567.16;5110134;28;20044;-60
2024/02/06 06:51:29;;;;;;;4.85;3.17;;;;;;;0.47;71.88;96573.38;5111694;28;20036;-59
2024/02/06 06:53:55;;;;;;;5.20;3.00;;;;;;;0.41;71.64;96572.53;5092234;28;20035;-60
2024/02/06 06:56:21;;;;;;;6.30;2.92;;;;;;;0.38;71.37;96573.84;5111163;28;20523;-62
2024/02/06 06:58:46;;;;;;;6.20;3.58;;;;;;;0.35;71.86;96576.09;5109296;28;20497;-60
2024/02/06 07:01:12;;;;;;;6.90;3.50;;;;;;;0.32;72.37;96579.97;5110236;28;20109;-61
2024/02/06 07:03:38;;;;;;;8.38;4.38;;;;;;;0.37;72.28;96585.25;5108246;28;20047;-62
2024/02/06 07:06:05;;;;;;;7.38;3.25;;;;;;;0.40;72.00;96592.59;5109674;28;20036;-62
2024/02/06 07:08:31;;;;;;;6.00;3.72;;;;;;;0.44;71.88;96585.91;5109162;28;20092;-64
2024/02/06 07:10:56;;;;;;;3.92;2.83;;;;;;;0.49;71.69;96592.97;5107984;28;20039;-61
2024/02/06 07:13:22;;;;;;;5.78;3.50;;;;;;;0.61;70.91;96583.22;5107763;28;20050;-61
2024/02/06 07:15:48;;;;;;;5.38;2.97;;;;;;;0.76;71.31;96580.00;5108260;28;20039;-62
2024/02/06 07:18:13;;;;;;;5.15;3.17;;;;;;;0.84;70.04;96594.44;5109945;28;20047;-63
2024/02/06 07:20:39;;;;;;;8.65;2.63;;;;;;;0.90;68.92;96590.88;5110680;28;20047;-62
2024/02/06 07:23:05;;;;;;;6.53;2.67;;;;;;;0.97;69.13;96588.06;5109517;28;20382;-61
2024/02/06 07:25:30;;;;;;;3.90;2.22;;;;;;;1.06;69.25;96586.59;5109881;28;20051;-62
2024/02/06 07:27:56;;;;;;;4.65;2.63;;;;;;;1.16;69.34;96583.31;5092408;28;20059;-61
2024/02/06 07:30:22;;;;;;;5.38;2.67;;;;;;;1.16;68.12;96594.53;5110269;28;20055;-63
2024/02/06 07:32:47;;;;;;;3.72;2.25;;;;;;;1.16;68.95;96586.72;5109764;28;20442;-62
2024/02/06 07:35:13;;;;;;;4.10;2.67;;;;;;;1.14;68.15;96588.78;5091330;28;20044;-63
2024/02/06 07:37:39;;;;;;;3.40;2.38;;;;;;;0.90;68.18;96583.03;5110689;28;20047;-63
2024/02/06 07:40:06;;;;;;;3.22;2.00;;;;;;;0.87;68.49;96578.31;5110515;28;20043;-64
2024/02/06 07:42:32;;;;;;;2.50;2.22;;;;;;;0.65;68.11;96594.75;5109180;28;20486;-63
2024/02/06 07:44:58;;;;;;;2.97;2.17;;;;;;;0.73;69.05;96590.91;5109799;28;20092;-63
2024/02/06 07:47:24;;;;;;;9.52;5.93;;;;;;;0.73;69.16;96585.72;5114775;28;20036;-62
2024/02/06 07:49:51;;;;;;;4.90;2.00;;;;;;;0.67;69.35;96590.06;5092999;28;20044;-63
2024/02/06 07:52:18;;;;;;;4.97;1.90;;;;;;;0.68;69.19;96596.88;5047346;28;20537;-61
2024/02/06 07:54:44;;;;;;;3.30;1.92;;;;;;;0.73;69.34;96605.78;5059391;28;20081;-61
2024/02/06 07:57:10;;;;;;;2.53;2.10;;;;;;;0.58;68.26;96609.00;5102728;28;20047;-61
2024/02/06 07:59:35;;;;;;;4.80;2.10;;;;;;;0.64;69.30;96621.84;5115662;28;20059;-63
2024/02/06 08:02:03;;;;;;;2.78;1.92;;;;;;;0.67;69.19;96618.75;5116456;28;20054;-62
2024/02/06 08:04:29;;;;;;;5.03;2.38;;;;;;;0.70;68.58;96617.47;5114201;28;20051;-63
2024/02/06 08:06:56;;;;;;;5.78;3.15;;;;;;;0.62;68.51;96617.91;5116181;28;20040;-64
2024/02/06 08:09:23;;;;;;;8.85;4.05;;;;;;;0.72;68.70;96620.66;5114597;28;20047;-62
2024/02/06 08:11:51;;;;;;;5.97;3.00;;;;;;;0.82;68.57;96625.97;5115125;28;20054;-63
2024/02/06 08:14:17;;;;;;;4.50;3.30;;;;;;;0.62;67.84;96636.16;5115502;28;20073;-62
2024/02/06 08:16:43;;;;;;;4.75;2.78;;;;;;;0.76;70.56;96629.53;5113051;28;20040;-60
2024/02/06 08:19:08;;;;;;;3.58;2.28;;;;;;;0.81;67.94;96640.06;5114352;28;20088;-62
2024/02/06 08:21:35;;;;;;;3.65;2.67;;;;;;;0.63;68.39;96635.13;5112477;28;20063;-62
2024/02/06 08:24:01;;;;;;;4.10;2.58;;;;;;;0.83;68.05;96635.38;5120570;27;20040;-62
2024/02/06 08:26:27;;;;;;;7.93;4.35;;;;;;;1.00;67.06;96631.91;5114201;28;20100;-61
2024/02/06 08:28:52;;;;;;;10.18;5.50;;;;;;;0.97;65.64;96632.41;5113008;28;20043;-61
2024/02/06 08:31:22;;;;;;;5.57;3.00;;;;;;;1.08;66.13;96634.88;5112424;28;20032;-62
2024/02/06 08:33:49;;;;;;;3.13;2.58;;;;;;;1.15;66.03;96645.16;5095232;28;20505;-61
2024/02/06 08:36:16;;;;;;;4.88;2.60;;;;;;;1.02;65.51;96640.28;5078443;28;20520;-62
2024/02/06 08:38:42;;;;;;;3.28;2.33;;;;;;;0.97;66.93;96635.81;5095225;28;20540;-62
2024/02/06 08:41:08;;;;;;;3.47;2.45;;;;;;;0.86;66.03;96649.78;5112068;28;20042;-61
2024/02/06 08:43:34;;;;;;;8.15;4.00;;;;;;;0.81;67.54;96634.84;5112497;28;20493;-59
2024/02/06 08:46:00;;;;;;;5.50;3.30;;;;;;;0.89;67.43;96638.84;5092279;28;20047;-62
2024/02/06 08:48:28;;;;;;;4.03;2.35;;;;;;;1.05;67.82;96640.59;5092273;28;20044;-60
2024/02/06 08:50:55;;;;;;;6.28;2.95;;;;;;;1.00;66.56;96645.78;5112676;28;20066;-62
2024/02/06 08:53:20;;;;;;;3.95;2.50;;;;;;;0.95;67.02;96619.63;5113455;28;20040;-62
2024/02/06 08:55:46;;;;;;;4.60;2.75;;;;;;;1.17;67.31;96647.50;5111308;28;20046;-61
2024/02/06 08:58:12;;;;;;;5.63;3.13;;;;;;;1.29;67.41;96654.16;5111872;28;20051;-61
2024/02/06 09:00:38;;;;;;;3.28;2.33;;;;;;;1.42;66.97;96652.22;5112769;28;20043;-63
2024/02/06 09:03:04;;;;;;;4.30;2.85;;;;;;;1.14;66.27;96649.56;5076877;28;20036;-62
2024/02/06 09:05:30;;;;;;;5.95;2.50;;;;;;;1.19;65.58;96655.88;5111450;28;20058;-59
2024/02/06 09:07:56;;;;;;;3.13;2.20;;;;;;;1.40;66.98;96662.91;5112030;28;20039;-62
2024/02/06 09:10:26;;;;;;;3.50;2.42;;;;;;;1.35;65.37;96660.22;5114530;28;20054;-62
2024/02/06 09:12:54;;;;;;;4.18;2.17;;;;;;;1.36;65.25;96660.00;5109422;28;20040;-61
2024/02/06 09:15:22;;;;;;;3.97;2.20;;;;;;;1.45;66.14;96662.97;5111400;28;20183;-63
2024/02/06 09:18:00;;;;;;;5.03;2.50;;;;;;;1.32;64.41;96669.38;5111331;28;20042;-61
2024/02/06 09:20:27;;;;;;;2.85;2.33;;;;;;;1.49;65.20;96674.47;5111817;28;20058;-62
2024/02/06 09:22:52;;;;;;;11.70;5.65;;;;;;;1.55;63.31;96670.88;5112542;28;20558;-64
2024/02/06 09:25:18;;;;;;;8.75;4.43;;;;;;;1.57;63.35;96676.66;5112766;28;20043;-63
2024/02/06 09:27:44;;;;;;;3.08;2.30;;;;;;;1.54;64.08;96679.75;5112439;28;20497;-61
2024/02/06 09:30:11;;;;;;;8.63;3.47;;;;;;;1.24;62.62;96677.63;5113001;28;20039;-61
2024/02/06 09:32:40;;;;;;;4.47;2.30;;;;;;;1.05;63.83;96679.72;5094696;28;20371;-62
2024/02/06 09:35:07;;;;;;;4.15;2.60;;;;;;;1.08;64.64;96684.47;5112749;28;20047;-62
2024/02/06 09:37:34;;;;;;;5.15;3.30;;;;;;;1.20;65.01;96684.34;5067011;28;20535;-62
2024/02/06 09:40:01;;;;;;;4.97;2.40;;;;;;;1.11;63.26;96691.00;5090873;28;20134;-64
2024/02/06 09:42:30;;;;;;;3.60;1.90;;;;;;;1.18;63.89;96686.41;5081553;27;20114;-60
2024/02/06 09:44:55;;;;;;;2.78;2.08;;;;;;;1.19;63.97;96687.19;5064029;28;20155;-61
2024/02/06 09:47:21;;;;;;;4.07;2.40;;;;;;;1.06;64.57;96694.38;5109928;28;20055;-62
2024/02/06 09:49:47;;;;;;;2.00;1.80;;;;;;;1.02;63.45;96693.25;5112796;28;20047;-62
2024/02/06 09:52:14;;;;;;;3.35;2.03;;;;;;;0.97;64.46;96698.44;5110963;28;20036;-63
2024/02/06 09:54:47;;;;;;;3.08;2.20;;;;;;;0.93;64.41;96697.31;5110935;28;20054;-63
2024/02/06 09:57:17;;;;;;;3.30;1.92;;;;;;;0.83;64.28;96705.81;5071685;28;20081;-62
2024/02/06 09:59:55;;;;;;;1.93;1.70;;;;;;;0.76;65.95;96702.56;5110453;28;20134;-63
2024/02/06 10:02:24;;;;;;;3.17;2.10;;;;;;;0.78;63.97;96710.94;5109909;28;20039;-64
2024/02/06 10:04:53;;;;;;;3.95;2.30;;;;;;;0.74;63.59;96711.69;5093610;28;20048;-63
2024/02/06 10:07:22;;;;;;;3.28;2.17;;;;;;;0.82;64.73;96711.25;5111812;28;20039;-63
2024/02/06 10:09:49;;;;;;;2.90;2.03;;;;;;;0.93;63.44;96723.41;5111357;27;20039;-63
2024/02/06 10:12:16;;;;;;;1.98;1.77;;;;;;;0.82;63.61;96724.28;5110600;28;20489;-63
2024/02/06 10:14:44;;;;;;;3.35;1.60;;;;;;;0.82;62.69;96732.09;5109831;28;20051;-61
2024/02/06 10:17:11;;;;;;;2.47;1.67;;;;;;;0.84;63.06;96724.84;5092557;28;20035;-65
2024/02/06 10:19:36;;;;;;;1.90;1.73;;;;;;;0.89;63.35;96727.53;5111379;28;20047;-62
2024/02/06 10:22:03;;;;;;;1.77;1.67;;;;;;;1.01;62.78;96722.19;5074971;28;20092;-62
2024/02/06 10:24:30;;;;;;;1.75;1.65;;;;;;;1.29;62.71;96727.25;5109261;28;20040;-63
2024/02/06 10:27:02;;;;;;;2.38;1.90;;;;;;;1.60;62.22;96732.81;5109024;28;20050;-62
2024/02/06 10:29:28;;;;;;;2.55;1.73;;;;;;;1.70;61.07;96732.13;5110233;28;20146;-61
2024/02/06 10:31:58;;;;;;;4.18;1.98;;;;;;;1.62;62.76;96729.97;5111053;28;20084;-62
2024/02/06 10:34:30;;;;;;;3.93;1.67;;;;;;;1.64;62.53;96728.69;5110125;28;20084;-63
2024/02/06 10:36:58;;;;;;;2.40;1.80;;;;;;;1.86;64.04;96725.25;5110252;28;20285;-63
2024/02/06 10:39:26;;;;;;;5.50;2.53;;;;;;;2.13;63.41;96727.88;5111444;28;20397;-62
2024/02/06 10:42:03;;;;;;;3.97;1.90;;;;;;;2.16;62.42;96722.91;5111581;28;20040;-63
2024/02/06 10:44:29;;;;;;;1.50;1.40;;;;;;;2.14;62.99;96732.03;5110415;28;20044;-63
2024/02/06 10:47:25;;;;;;;2.40;1.40;;;;;;;1.87;60.51;96738.06;5109320;28;20289;-60
2024/02/06 10:50:05;;;;;;;2.63;1.85;;;;;;;1.74;61.68;96728.81;5075713;28;20043;-63
2024/02/06 10:52:32;;;;;;;9.05;2.13;;;;;;;1.96;63.20;96736.59;5111573;28;20126;-63
2024/02/06 10:54:57;;;;;;;3.15;1.50;;;;;;;2.04;60.61;96741.38;5111746;28;20046;-62
2024/02/06 10:57:35;;;;;;;2.40;1.80;;;;;;;2.09;61.37;96737.22;5110260;28;20469;-62
2024/02/06 11:00:17;;;;;;;2.25;1.80;;;;;;;2.18;61.49;96731.31;5093040;28;20116;-63
2024/02/06 11:02:44;;;;;;;2.92;1.55;;;;;;;2.09;61.16;96745.06;5108896;28;20028;-62
2024/02/06 11:05:15;;;;;;;1.85;1.50;;;;;;;2.08;61.13;96741.66;5112521;28;20106;-62
2024/02/06 11:08:03;;;;;;;4.85;2.80;;;;;;;2.03;60.61;96739.81;5109356;28;20042;-61
2024/02/06 11:10:36;;;;;;;3.55;1.42;;;;;;;1.77;61.33;96741.38;5110109;28;20048;-62
2024/02/06 11:13:05;;;;;;;2.45;1.50;;;;;;;1.82;61.63;96748.44;5072741;28;20135;-62
2024/02/06 11:15:39;;;;;;;2.55;1.83;;;;;;;2.08;62.17;96748.72;5098454;28;20044;-61
2024/02/06 11:18:11;;;;;;;3.08;1.38;;;;;;;2.25;61.26;96744.16;5110537;28;20059;-61
2024/02/06 11:20:41;;;;;;;3.15;1.48;;;;;;;2.24;60.22;96753.06;5077828;28;20047;-61
2024/02/06 11:23:07;;;;;;;;;;;;;;;2.34;60.49;96745.28;5115795;28;20093;-62
2024/02/06 11:25:36;;;;;;;1.42;1.30;;;;;;;2.25;60.14;96747.56;5114833;28;19919;-62
2024/02/06 11:28:03;;;;;;;2.95;1.60;;;;;;;2.23;59.95;96756.69;5113083;28;20501;-62
2024/02/06 11:30:31;;;;;;;4.22;1.70;;;;;;;2.17;59.60;96755.84;5114414;28;20082;-62
2024/02/06 11:33:02;;;;;;;3.35;2.13;;;;;;;2.06;59.18;96764.66;5113470;28;20035;-62
2024/02/06 11:35:35;;;;;;;5.60;3.35;;;;;;;1.92;58.46;96766.06;5114457;28;20374;-61